createdAt,value
2022-12-27T00:00:46.657Z,93.27
2022-12-27T00:01:46.599Z,93.46
2022-12-27T00:02:46.644Z,93.46
2022-12-27T00:03:46.625Z,93.75
2022-12-27T00:04:46.601Z,93.94
2022-12-27T00:05:46.596Z,94.13
2022-12-27T00:06:46.595Z,94.89
2022-12-27T00:07:46.578Z,94.42
2022-12-27T00:08:46.552Z,94.42
2022-12-27T00:09:46.568Z,94.79
2022-12-27T00:10:46.568Z,94.89
2022-12-27T00:11:46.544Z,94.98
2022-12-27T00:12:46.602Z,94.89
2022-12-27T00:13:46.600Z,94.89
2022-12-27T00:14:46.593Z,94.79
2022-12-27T00:15:46.594Z,94.51
2022-12-27T00:16:46.607Z,95.17
2022-12-27T00:17:46.528Z,94.70
2022-12-27T00:18:46.534Z,94.70
2022-12-27T00:19:46.516Z,94.98
2022-12-27T00:20:46.554Z,95.36
2022-12-27T00:21:46.591Z,95.46
2022-12-27T00:22:46.626Z,95.46
2022-12-27T00:23:46.515Z,95.36
2022-12-27T00:24:46.633Z,95.55
2022-12-27T00:25:46.566Z,95.75
2022-12-27T00:26:46.584Z,95.75
2022-12-27T00:27:46.526Z,95.94
2022-12-27T00:28:46.529Z,95.75
2022-12-27T00:29:46.503Z,95.94
2022-12-27T00:30:46.639Z,96.31
2022-12-27T00:31:46.543Z,96.41
2022-12-27T00:32:46.514Z,96.79
2022-12-27T00:33:46.540Z,96.79
2022-12-27T00:34:46.555Z,96.31
2022-12-27T00:35:46.556Z,96.08
2022-12-27T00:36:46.501Z,96.12
2022-12-27T00:37:46.488Z,96.41
2022-12-27T00:38:46.494Z,96.60
2022-12-27T00:39:46.472Z,96.64
2022-12-27T00:40:46.482Z,96.69
2022-12-27T00:41:46.465Z,97.64
2022-12-27T00:42:46.512Z,97.50
2022-12-27T00:43:46.493Z,97.41
2022-12-27T00:44:46.452Z,97.12
2022-12-27T00:45:46.483Z,97.31
2022-12-27T00:46:46.442Z,97.41
2022-12-27T00:47:46.464Z,97.50
2022-12-27T00:48:46.450Z,97.31
2022-12-27T00:49:46.466Z,97.69
2022-12-27T00:50:46.449Z,98.07
2022-12-27T00:51:46.496Z,99.02
2022-12-27T00:52:46.539Z,98.73
2022-12-27T00:53:46.477Z,98.73
2022-12-27T00:54:46.525Z,99.40
2022-12-27T00:55:46.451Z,99.21
2022-12-27T00:56:46.479Z,99.49
2022-12-27T00:57:46.572Z,99.77
2022-12-27T00:58:46.484Z,99.97
2022-12-27T00:59:46.458Z,99.58
2022-12-27T01:00:46.654Z,99.97
2022-12-27T01:01:46.579Z,99.99
2022-12-27T01:02:46.478Z,99.99
2022-12-27T01:03:46.517Z,99.99
2022-12-27T01:04:46.480Z,99.99
2022-12-27T01:05:46.522Z,99.99
2022-12-27T01:06:46.430Z,99.99
2022-12-27T01:07:46.444Z,99.99
2022-12-27T01:08:47.334Z,99.99
2022-12-27T01:09:46.433Z,99.99
2022-12-27T01:10:46.501Z,99.99
2022-12-27T01:11:46.467Z,99.99
2022-12-27T01:12:46.476Z,99.99
2022-12-27T01:13:46.525Z,99.99
2022-12-27T01:14:46.485Z,99.99
2022-12-27T01:15:46.479Z,99.99
2022-12-27T01:16:46.416Z,99.99
2022-12-27T01:17:46.477Z,99.99
2022-12-27T01:18:46.359Z,99.99
2022-12-27T01:19:46.350Z,99.99
2022-12-27T01:20:46.353Z,99.99
2022-12-27T01:21:46.373Z,99.99
2022-12-27T01:22:46.369Z,99.99
2022-12-27T01:23:46.343Z,99.99
2022-12-27T01:24:46.361Z,99.99
2022-12-27T01:25:46.332Z,99.99
2022-12-27T01:26:46.333Z,99.99
2022-12-27T01:27:46.344Z,99.99
2022-12-27T01:28:46.359Z,99.99
2022-12-27T01:29:46.332Z,99.99
2022-12-27T01:30:46.317Z,99.99
2022-12-27T01:31:46.356Z,99.99
2022-12-27T01:32:46.337Z,99.99
2022-12-27T01:33:46.315Z,99.99
2022-12-27T01:34:46.316Z,99.99
2022-12-27T01:35:46.298Z,99.99
2022-12-27T01:36:46.297Z,99.99
2022-12-27T01:37:46.321Z,99.99
2022-12-27T01:38:46.333Z,99.99
2022-12-27T01:39:46.299Z,99.99
2022-12-27T01:40:46.298Z,99.99
2022-12-27T01:41:46.291Z,99.99
2022-12-27T01:42:46.290Z,99.99
2022-12-27T01:43:46.313Z,99.99
2022-12-27T01:44:46.272Z,99.99
2022-12-27T01:45:46.292Z,99.99
2022-12-27T01:46:46.274Z,99.99
2022-12-27T01:47:46.277Z,99.99
2022-12-27T01:48:46.285Z,99.99
2022-12-27T01:49:46.282Z,99.99
2022-12-27T01:50:46.265Z,99.99
2022-12-27T01:51:46.305Z,99.99
2022-12-27T01:52:46.274Z,99.99
2022-12-27T01:53:46.297Z,99.99
2022-12-27T01:54:46.279Z,99.99
2022-12-27T01:55:46.328Z,99.99
2022-12-27T01:56:46.333Z,99.99
2022-12-27T01:57:46.248Z,99.99
2022-12-27T01:58:46.247Z,99.99
2022-12-27T01:59:46.270Z,99.99
2022-12-27T02:00:46.357Z,99.99
2022-12-27T02:01:46.421Z,99.99
2022-12-27T02:02:46.373Z,99.99
2022-12-27T02:03:46.264Z,99.99
2022-12-27T02:04:46.263Z,99.99
2022-12-27T02:05:46.247Z,99.99
2022-12-27T02:06:46.229Z,99.99
2022-12-27T02:07:46.201Z,99.99
2022-12-27T02:08:46.222Z,99.99
2022-12-27T02:09:46.210Z,99.99
2022-12-27T02:10:46.232Z,99.99
2022-12-27T02:11:46.229Z,99.99
2022-12-27T02:12:46.203Z,99.99
2022-12-27T02:13:46.230Z,99.99
2022-12-27T02:14:46.219Z,99.99
2022-12-27T02:15:46.184Z,99.99
2022-12-27T02:16:46.257Z,99.99
2022-12-27T02:17:46.192Z,99.99
2022-12-27T02:18:46.209Z,99.99
2022-12-27T02:19:46.209Z,99.99
2022-12-27T02:20:46.200Z,99.99
2022-12-27T02:21:46.203Z,99.99
2022-12-27T02:22:46.218Z,99.99
2022-12-27T02:23:46.177Z,99.99
2022-12-27T02:24:46.206Z,99.99
2022-12-27T02:25:46.143Z,99.99
2022-12-27T02:26:46.150Z,99.99
2022-12-27T02:27:46.149Z,99.99
2022-12-27T02:28:46.161Z,99.99
2022-12-27T02:29:46.172Z,99.99
2022-12-27T02:30:46.210Z,99.99
2022-12-27T02:31:57.491Z,99.99
2022-12-27T02:32:46.147Z,99.99
2022-12-27T02:33:46.166Z,99.99
2022-12-27T02:36:42.932Z,99.99
2022-12-27T02:37:42.954Z,99.99
2022-12-27T02:38:42.918Z,99.99
2022-12-27T02:39:42.909Z,99.99
2022-12-27T02:40:42.902Z,99.99
2022-12-27T02:41:42.931Z,99.99
2022-12-27T02:42:42.923Z,99.99
2022-12-27T02:43:42.893Z,99.99
2022-12-27T02:44:42.906Z,99.99
2022-12-27T02:45:43.007Z,99.99
2022-12-27T02:46:42.929Z,99.99
2022-12-27T02:47:42.886Z,99.99
2022-12-27T02:48:42.909Z,99.99
2022-12-27T02:49:42.899Z,99.99
2022-12-27T02:50:42.906Z,99.99
2022-12-27T02:51:42.892Z,99.99
2022-12-27T02:52:42.929Z,99.99
2022-12-27T02:53:42.915Z,99.99
2022-12-27T02:54:42.878Z,99.99
2022-12-27T02:55:42.876Z,99.99
2022-12-27T02:56:42.853Z,99.99
2022-12-27T02:57:42.894Z,99.99
2022-12-27T02:58:42.857Z,99.99
2022-12-27T02:59:42.872Z,99.99
2022-12-27T03:00:42.848Z,99.99
2022-12-27T03:01:42.928Z,99.99
2022-12-27T03:02:42.923Z,99.99
2022-12-27T03:05:16.654Z,99.99
2022-12-27T03:06:15.986Z,99.99
2022-12-27T03:07:15.933Z,99.99
2022-12-27T03:08:15.926Z,99.99
2022-12-27T03:09:15.995Z,99.99
2022-12-27T03:10:15.917Z,99.99
2022-12-27T03:11:15.930Z,99.99
2022-12-27T03:12:15.931Z,99.99
2022-12-27T03:13:15.923Z,99.99
2022-12-27T03:14:15.953Z,99.99
2022-12-27T03:15:15.918Z,99.99
2022-12-27T03:16:16.012Z,99.99
2022-12-27T03:17:15.916Z,99.99
2022-12-27T03:18:15.904Z,99.99
2022-12-27T03:19:15.911Z,99.99
2022-12-27T03:20:15.892Z,99.99
2022-12-27T03:21:15.920Z,99.99
2022-12-27T03:22:15.924Z,99.99
2022-12-27T03:23:15.909Z,99.99
2022-12-27T03:24:15.910Z,99.99
2022-12-27T03:25:15.891Z,99.99
2022-12-27T03:26:15.899Z,99.99
2022-12-27T03:27:15.869Z,99.99
2022-12-27T03:28:15.869Z,99.99
2022-12-27T03:29:15.875Z,99.99
2022-12-27T03:30:15.888Z,99.99
2022-12-27T03:31:15.913Z,99.99
2022-12-27T03:32:15.899Z,99.99
2022-12-27T03:33:15.841Z,99.99
2022-12-27T03:34:15.858Z,99.99
2022-12-27T03:35:15.869Z,99.99
2022-12-27T03:36:15.859Z,99.99
2022-12-27T03:37:15.836Z,99.99
2022-12-27T03:38:15.887Z,99.99
2022-12-27T03:39:15.857Z,99.99
2022-12-27T03:40:15.920Z,99.99
2022-12-27T03:41:15.843Z,99.99
2022-12-27T03:42:15.863Z,99.99
2022-12-27T03:43:15.843Z,99.99
2022-12-27T03:44:15.950Z,99.99
2022-12-27T03:45:15.835Z,99.99
2022-12-27T03:46:15.823Z,99.99
2022-12-27T03:47:15.816Z,99.99
2022-12-27T03:48:15.890Z,99.99
2022-12-27T03:49:15.818Z,99.99
2022-12-27T03:50:15.840Z,99.99
2022-12-27T03:51:15.851Z,99.99
2022-12-27T03:52:15.827Z,99.99
2022-12-27T03:53:16.068Z,99.99
2022-12-27T03:54:15.800Z,99.99
2022-12-27T03:55:15.819Z,99.99
2022-12-27T03:56:15.814Z,99.99
2022-12-27T03:57:15.751Z,99.99
2022-12-27T03:58:15.787Z,99.99
2022-12-27T03:59:15.769Z,99.99
2022-12-27T04:00:15.794Z,99.99
2022-12-27T04:01:15.907Z,99.99
2022-12-27T04:02:15.857Z,99.99
2022-12-27T04:03:15.822Z,99.99
2022-12-27T04:04:15.784Z,99.99
2022-12-27T04:05:15.782Z,99.99
2022-12-27T04:06:15.782Z,99.99
2022-12-27T04:07:15.763Z,99.99
2022-12-27T04:08:15.774Z,99.99
2022-12-27T04:09:15.773Z,99.99
2022-12-27T04:10:15.716Z,99.99
2022-12-27T04:11:15.751Z,99.99
2022-12-27T04:12:15.731Z,99.99
2022-12-27T04:13:15.779Z,99.99
2022-12-27T04:14:15.734Z,99.99
2022-12-27T04:15:15.699Z,99.99
2022-12-27T04:16:15.768Z,99.99
2022-12-27T04:17:15.709Z,99.99
2022-12-27T04:18:15.690Z,99.99
2022-12-27T04:19:15.903Z,99.99
2022-12-27T04:20:15.935Z,99.99
2022-12-27T04:21:15.720Z,99.99
2022-12-27T04:22:15.844Z,99.99
2022-12-27T04:23:16.023Z,99.99
2022-12-27T04:24:15.761Z,99.99
2022-12-27T04:25:15.730Z,99.99
2022-12-27T04:26:15.833Z,99.99
2022-12-27T04:27:15.711Z,99.99
2022-12-27T04:28:15.912Z,99.99
2022-12-27T04:29:15.779Z,99.99
2022-12-27T04:30:15.792Z,99.99
2022-12-27T04:31:15.992Z,99.99
2022-12-27T04:32:15.708Z,99.99
2022-12-27T04:33:15.865Z,99.99
2022-12-27T04:34:15.635Z,99.99
2022-12-27T04:35:16.011Z,99.99
2022-12-27T04:36:15.727Z,99.99
2022-12-27T04:37:15.621Z,99.99
2022-12-27T04:38:15.666Z,99.99
2022-12-27T04:39:15.655Z,99.99
2022-12-27T04:40:16.030Z,99.99
2022-12-27T04:41:23.611Z,99.99
2022-12-27T04:42:15.582Z,99.99
2022-12-27T04:43:15.579Z,99.99
2022-12-27T04:44:15.573Z,99.99
2022-12-27T04:45:15.787Z,99.99
2022-12-27T04:46:15.620Z,99.99
2022-12-27T04:47:15.573Z,99.99
2022-12-27T04:48:15.548Z,99.99
2022-12-27T04:49:15.550Z,99.99
2022-12-27T04:50:15.554Z,99.99
2022-12-27T04:51:15.547Z,99.99
2022-12-27T04:52:15.547Z,99.99
2022-12-27T04:53:15.529Z,99.99
2022-12-27T04:54:15.580Z,99.99
2022-12-27T04:55:15.523Z,99.99
2022-12-27T04:56:15.536Z,99.99
2022-12-27T04:57:15.518Z,99.99
2022-12-27T04:58:15.529Z,99.99
2022-12-27T04:59:15.520Z,99.99
2022-12-27T05:00:15.519Z,99.99
2022-12-27T05:01:15.610Z,99.99
2022-12-27T05:02:15.612Z,99.99
2022-12-27T05:03:15.616Z,99.99
2022-12-27T05:04:15.520Z,99.99
2022-12-27T05:05:15.481Z,99.99
2022-12-27T05:06:15.488Z,99.99
2022-12-27T05:07:15.481Z,99.99
2022-12-27T05:08:15.493Z,99.99
2022-12-27T05:09:20.014Z,99.99
2022-12-27T05:10:15.490Z,99.99
2022-12-27T05:11:15.474Z,99.99
2022-12-27T05:12:15.466Z,99.99
2022-12-27T05:13:15.454Z,99.99
2022-12-27T05:14:15.447Z,99.99
2022-12-27T05:15:15.457Z,99.99
2022-12-27T05:16:15.501Z,99.99
2022-12-27T05:17:15.448Z,99.99
2022-12-27T05:18:15.456Z,99.99
2022-12-27T05:19:15.493Z,99.99
2022-12-27T05:20:15.472Z,99.99
2022-12-27T05:21:15.424Z,99.99
2022-12-27T05:22:15.425Z,99.99
2022-12-27T05:23:15.442Z,99.99
2022-12-27T05:24:15.431Z,99.99
2022-12-27T05:25:15.457Z,99.99
2022-12-27T05:26:15.435Z,99.99
2022-12-27T05:27:15.407Z,99.99
2022-12-27T05:28:15.407Z,99.99
2022-12-27T05:29:15.426Z,99.99
2022-12-27T05:30:15.404Z,99.99
2022-12-27T05:31:15.449Z,99.99
2022-12-27T05:32:15.403Z,99.99
2022-12-27T05:33:15.405Z,99.99
2022-12-27T05:34:15.391Z,99.99
2022-12-27T05:35:15.375Z,99.99
2022-12-27T05:36:15.413Z,99.99
2022-12-27T05:37:15.379Z,99.99
2022-12-27T05:38:15.381Z,99.99
2022-12-27T05:39:15.367Z,99.99
2022-12-27T05:40:15.361Z,99.99
2022-12-27T05:41:15.375Z,99.99
2022-12-27T05:42:15.362Z,99.99
2022-12-27T05:43:15.340Z,99.99
2022-12-27T05:44:15.330Z,99.99
2022-12-27T05:45:15.335Z,99.99
2022-12-27T05:46:15.451Z,99.99
2022-12-27T05:47:15.371Z,99.99
2022-12-27T05:48:15.332Z,99.99
2022-12-27T05:49:15.335Z,99.99
2022-12-27T05:50:15.314Z,99.99
2022-12-27T05:51:15.311Z,99.99
2022-12-27T05:52:15.308Z,99.99
2022-12-27T05:53:15.334Z,99.99
2022-12-27T05:54:15.294Z,99.99
2022-12-27T05:55:15.300Z,99.99
2022-12-27T05:56:15.327Z,99.99
2022-12-27T05:57:15.287Z,99.99
2022-12-27T05:58:15.333Z,99.99
2022-12-27T05:59:15.280Z,99.99
2022-12-27T06:00:15.261Z,99.99
2022-12-27T06:01:15.410Z,99.99
2022-12-27T06:02:15.406Z,99.99
2022-12-27T06:03:15.323Z,99.99
2022-12-27T06:04:15.278Z,99.99
2022-12-27T06:05:15.277Z,99.99
2022-12-27T06:06:15.255Z,99.99
2022-12-27T06:07:15.238Z,99.99
2022-12-27T06:08:15.295Z,99.99
2022-12-27T06:09:15.240Z,99.99
2022-12-27T06:10:15.252Z,99.99
2022-12-27T06:11:15.258Z,99.99
2022-12-27T06:12:15.219Z,99.99
2022-12-27T06:13:15.240Z,99.99
2022-12-27T06:14:15.234Z,99.99
2022-12-27T06:15:15.219Z,99.99
2022-12-27T06:16:15.239Z,99.99
2022-12-27T06:17:15.221Z,99.99
2022-12-27T06:18:15.191Z,99.99
2022-12-27T06:19:15.224Z,99.99
2022-12-27T06:20:15.204Z,99.99
2022-12-27T06:21:15.189Z,99.99
2022-12-27T06:22:15.195Z,99.99
2022-12-27T06:23:15.190Z,99.99
2022-12-27T06:24:15.239Z,99.99
2022-12-27T06:25:15.184Z,99.99
2022-12-27T06:26:15.182Z,99.99
2022-12-27T06:27:15.171Z,99.99
2022-12-27T06:28:15.195Z,99.99
2022-12-27T06:29:15.233Z,99.99
2022-12-27T06:30:15.191Z,99.99
2022-12-27T06:31:15.254Z,99.99
2022-12-27T06:32:15.130Z,99.99
2022-12-27T06:33:15.133Z,99.99
2022-12-27T06:34:15.132Z,99.99
2022-12-27T06:35:15.122Z,99.99
2022-12-27T06:36:15.132Z,99.99
2022-12-27T06:37:15.152Z,99.99
2022-12-27T06:38:15.141Z,99.99
2022-12-27T06:39:15.138Z,99.99
2022-12-27T06:40:23.674Z,99.99
2022-12-27T06:41:23.248Z,99.99
2022-12-27T06:42:22.680Z,99.99
2022-12-27T06:43:15.097Z,99.99
2022-12-27T06:44:24.250Z,99.99
2022-12-27T06:45:15.089Z,99.99
2022-12-27T06:46:17.566Z,99.99
2022-12-27T06:47:15.086Z,99.99
2022-12-27T06:48:15.108Z,99.99
2022-12-27T06:49:15.071Z,99.99
2022-12-27T06:50:15.084Z,99.99
2022-12-27T06:51:15.080Z,99.99
2022-12-27T06:52:15.304Z,99.99
2022-12-27T06:53:15.072Z,99.99
2022-12-27T06:54:15.037Z,99.99
2022-12-27T06:55:15.078Z,99.99
2022-12-27T06:56:15.052Z,99.99
2022-12-27T06:57:15.045Z,99.99
2022-12-27T06:58:15.027Z,99.99
2022-12-27T06:59:15.051Z,99.99
2022-12-27T07:00:15.063Z,99.99
2022-12-27T07:01:15.183Z,99.99
2022-12-27T07:02:15.243Z,99.99
2022-12-27T07:03:15.333Z,99.99
2022-12-27T07:04:15.083Z,99.99
2022-12-27T07:05:15.037Z,99.99
2022-12-27T07:06:14.992Z,99.99
2022-12-27T07:07:15.939Z,99.99
2022-12-27T07:08:15.013Z,99.99
2022-12-27T07:09:14.988Z,99.99
2022-12-27T07:10:15.280Z,99.99
2022-12-27T07:11:14.986Z,99.99
2022-12-27T07:12:14.970Z,99.99
2022-12-27T07:13:14.983Z,99.99
2022-12-27T07:14:14.969Z,99.99
2022-12-27T07:15:15.014Z,99.99
2022-12-27T07:16:15.003Z,99.99
2022-12-27T07:17:14.968Z,99.99
2022-12-27T07:18:14.961Z,99.99
2022-12-27T07:19:14.956Z,99.99
2022-12-27T07:20:14.950Z,99.99
2022-12-27T07:21:14.938Z,99.99
2022-12-27T07:22:14.940Z,99.99
2022-12-27T07:23:19.262Z,99.99
2022-12-27T07:24:14.920Z,99.99
2022-12-27T07:25:14.909Z,99.99
2022-12-27T07:26:14.923Z,99.99
2022-12-27T07:27:14.928Z,99.99
2022-12-27T07:28:14.906Z,99.99
2022-12-27T07:31:13.106Z,99.99
2022-12-27T07:31:58.126Z,99.99
2022-12-27T07:32:58.126Z,99.99
2022-12-27T07:33:58.113Z,99.99
2022-12-27T07:34:58.102Z,99.99
2022-12-27T07:35:58.132Z,99.99
2022-12-27T07:36:58.105Z,99.99
2022-12-27T07:37:58.092Z,99.99
2022-12-27T07:38:58.077Z,99.99
2022-12-27T07:39:58.068Z,99.99
2022-12-27T07:40:58.059Z,99.99
2022-12-27T07:42:01.858Z,99.99
2022-12-27T07:42:58.105Z,99.99
2022-12-27T07:43:58.052Z,99.99
2022-12-27T07:44:58.065Z,99.99
2022-12-27T07:45:58.077Z,99.99
2022-12-27T07:46:58.045Z,99.99
2022-12-27T07:47:58.035Z,99.99
2022-12-27T07:48:58.088Z,99.99
2022-12-27T07:49:58.052Z,99.99
2022-12-27T07:50:58.053Z,99.99
2022-12-27T07:51:58.777Z,99.99
2022-12-27T07:52:58.026Z,99.99
2022-12-27T07:53:58.017Z,99.99
2022-12-27T07:54:58.046Z,99.99
2022-12-27T07:55:58.147Z,99.99
2022-12-27T07:56:58.097Z,99.99
2022-12-27T07:57:58.027Z,99.99
2022-12-27T07:58:57.984Z,99.99
2022-12-27T07:59:57.994Z,99.99
2022-12-27T08:00:58.140Z,99.99
2022-12-27T08:01:58.121Z,99.99
2022-12-27T08:02:58.067Z,99.99
2022-12-27T08:03:58.041Z,99.99
2022-12-27T08:04:57.977Z,99.99
2022-12-27T08:05:57.977Z,99.99
2022-12-27T08:06:58.002Z,99.99
2022-12-27T08:07:58.022Z,99.99
2022-12-27T08:08:57.961Z,99.99
2022-12-27T08:09:57.949Z,99.99
2022-12-27T08:11:02.137Z,99.99
2022-12-27T08:11:57.959Z,99.99
2022-12-27T08:12:57.949Z,99.99
2022-12-27T08:13:57.960Z,99.99
2022-12-27T08:14:57.956Z,99.99
2022-12-27T08:15:57.996Z,99.99
2022-12-27T08:16:57.962Z,99.99
2022-12-27T08:17:57.946Z,99.99
2022-12-27T08:19:01.950Z,99.99
2022-12-27T08:19:57.954Z,99.99
2022-12-27T08:20:57.913Z,99.99
2022-12-27T08:21:57.917Z,99.99
2022-12-27T08:22:57.912Z,99.99
2022-12-27T08:23:57.900Z,99.99
2022-12-27T08:24:57.944Z,99.99
2022-12-27T08:25:57.881Z,99.99
2022-12-27T08:26:57.889Z,99.99
2022-12-27T08:27:57.901Z,99.99
2022-12-27T08:28:57.936Z,99.99
2022-12-27T08:29:57.875Z,99.99
2022-12-27T08:30:57.917Z,99.99
2022-12-27T08:31:57.889Z,99.99
2022-12-27T08:32:57.899Z,99.99
2022-12-27T08:33:58.786Z,99.99
2022-12-27T08:35:12.059Z,99.99
2022-12-27T08:35:57.905Z,99.99
2022-12-27T08:36:57.848Z,99.99
2022-12-27T08:37:58.034Z,99.99
2022-12-27T08:38:58.722Z,99.99
2022-12-27T08:40:02.679Z,99.99
2022-12-27T08:40:57.870Z,99.99
2022-12-27T08:41:57.826Z,99.99
2022-12-27T08:42:57.811Z,99.99
2022-12-27T08:43:57.871Z,99.99
2022-12-27T08:44:57.833Z,99.99
2022-12-27T08:45:57.869Z,99.99
2022-12-27T08:46:57.840Z,99.99
2022-12-27T08:47:59.235Z,99.99
2022-12-27T08:48:58.673Z,99.99
2022-12-27T08:49:57.798Z,99.99
2022-12-27T08:50:57.799Z,99.99
2022-12-27T08:51:58.604Z,99.99
2022-12-27T08:52:57.790Z,99.99
2022-12-27T08:53:57.804Z,99.99
2022-12-27T08:54:57.816Z,99.99
2022-12-27T08:55:57.782Z,99.99
2022-12-27T08:56:57.777Z,99.99
2022-12-27T08:57:57.797Z,99.99
2022-12-27T08:58:57.800Z,99.99
2022-12-27T08:59:57.768Z,99.99
2022-12-27T09:00:58.047Z,99.99
2022-12-27T09:01:57.895Z,99.99
2022-12-27T09:02:57.815Z,99.99
2022-12-27T09:03:57.769Z,99.99
2022-12-27T09:04:57.749Z,99.99
2022-12-27T09:05:57.738Z,99.99
2022-12-27T09:06:57.738Z,99.99
2022-12-27T09:07:57.744Z,99.99
2022-12-27T09:08:57.805Z,99.99
2022-12-27T09:09:57.733Z,99.99
2022-12-27T09:10:57.718Z,99.99
2022-12-27T09:11:57.731Z,99.99
2022-12-27T09:12:57.727Z,99.99
2022-12-27T09:13:57.716Z,99.99
2022-12-27T09:14:57.747Z,99.99
2022-12-27T09:15:57.794Z,99.99
2022-12-27T09:16:57.719Z,98.79
2022-12-27T09:17:57.708Z,98.79
2022-12-27T09:18:57.721Z,98.97
2022-12-27T09:19:57.718Z,99.26
2022-12-27T09:20:57.684Z,99.99
2022-12-27T09:21:57.679Z,99.99
2022-12-27T09:22:57.691Z,99.99
2022-12-27T09:23:57.694Z,99.99
2022-12-27T09:24:57.785Z,99.99
2022-12-27T09:25:57.673Z,99.99
2022-12-27T09:26:57.670Z,99.99
2022-12-27T09:27:57.679Z,99.92
2022-12-27T09:28:57.672Z,99.21
2022-12-27T09:29:57.709Z,97.78
2022-12-27T09:30:57.725Z,97.83
2022-12-27T09:31:57.657Z,96.93
2022-12-27T09:32:57.666Z,96.12
2022-12-27T09:33:57.643Z,95.84
2022-12-27T09:34:57.686Z,95.27
2022-12-27T09:35:57.650Z,94.74
2022-12-27T09:36:57.661Z,95.98
2022-12-27T09:37:57.642Z,96.74
2022-12-27T09:38:57.655Z,97.41
2022-12-27T09:39:57.639Z,97.27
2022-12-27T09:40:57.653Z,97.92
2022-12-27T09:43:12.533Z,97.50
2022-12-27T09:43:57.616Z,97.55
2022-12-27T09:44:57.623Z,97.97
2022-12-27T09:45:57.673Z,97.92
2022-12-27T09:46:57.669Z,98.02
2022-12-27T09:47:57.611Z,98.12
2022-12-27T09:48:57.615Z,98.02
2022-12-27T09:49:57.607Z,98.21
2022-12-27T09:50:57.611Z,97.83
2022-12-27T09:51:57.624Z,97.78
2022-12-27T09:52:57.656Z,97.50
2022-12-27T09:53:57.596Z,97.50
2022-12-27T09:55:02.630Z,96.69
2022-12-27T09:55:57.587Z,95.27
2022-12-27T09:57:21.035Z,94.65
2022-12-27T09:57:57.642Z,93.79
2022-12-27T09:58:57.609Z,93.32
2022-12-27T09:59:57.693Z,92.03
2022-12-27T10:00:58.312Z,91.37
2022-12-27T10:01:57.670Z,91.17
2022-12-27T10:02:57.577Z,91.13
2022-12-27T10:03:57.601Z,91.32
2022-12-27T10:05:23.625Z,92.08
2022-12-27T10:05:57.639Z,91.89
2022-12-27T10:06:57.563Z,92.70
2022-12-27T10:07:57.581Z,92.32
2022-12-27T10:08:57.587Z,91.75
2022-12-27T10:09:57.553Z,91.56
2022-12-27T10:10:57.567Z,91.27
2022-12-27T10:11:57.539Z,91.94
2022-12-27T10:12:57.541Z,92.13
2022-12-27T10:13:57.553Z,92.13
2022-12-27T10:14:57.565Z,92.41
2022-12-27T10:15:57.576Z,92.13
2022-12-27T10:16:57.545Z,91.56
2022-12-27T10:17:57.542Z,92.13
2022-12-27T10:18:57.551Z,91.17
2022-12-27T10:19:57.565Z,90.75
2022-12-27T10:20:57.525Z,90.56
2022-12-27T10:21:57.531Z,88.98
2022-12-27T10:23:01.441Z,87.74
2022-12-27T10:23:57.522Z,87.17
2022-12-27T10:24:57.515Z,87.55
2022-12-27T10:25:57.527Z,87.27
2022-12-27T10:26:57.509Z,87.93
2022-12-27T10:27:57.512Z,88.41
2022-12-27T10:28:57.681Z,87.84
2022-12-27T10:29:57.547Z,87.65
2022-12-27T10:30:57.534Z,87.93
2022-12-27T10:31:57.493Z,87.84
2022-12-27T10:32:57.505Z,88.37
2022-12-27T10:33:57.526Z,88.84
2022-12-27T10:34:57.489Z,89.32
2022-12-27T10:35:57.574Z,89.56
2022-12-27T10:36:57.488Z,90.80
2022-12-27T10:37:57.500Z,90.84
2022-12-27T10:38:57.483Z,92.36
2022-12-27T10:39:57.533Z,92.08
2022-12-27T10:40:57.514Z,92.36
2022-12-27T10:42:05.744Z,93.41
2022-12-27T10:42:57.490Z,93.23
2022-12-27T10:43:57.512Z,93.55
2022-12-27T10:44:57.467Z,94.65
2022-12-27T10:45:57.489Z,94.74
2022-12-27T10:46:57.584Z,94.93
2022-12-27T10:47:57.478Z,94.98
2022-12-27T10:49:21.004Z,94.98
2022-12-27T10:49:57.453Z,95.46
2022-12-27T10:50:57.500Z,95.65
2022-12-27T10:51:57.463Z,95.84
2022-12-27T10:52:57.816Z,96.12
2022-12-27T10:53:57.459Z,95.94
2022-12-27T10:54:57.440Z,96.79
2022-12-27T10:55:57.443Z,96.22
2022-12-27T10:56:57.468Z,95.56
2022-12-27T10:57:57.440Z,96.08
2022-12-27T10:58:59.215Z,96.08
2022-12-27T10:59:57.436Z,95.56
2022-12-27T11:00:57.524Z,96.03
2022-12-27T11:01:57.515Z,95.65
2022-12-27T11:02:57.490Z,95.89
2022-12-27T11:03:57.447Z,96.08
2022-12-27T11:04:57.450Z,96.26
2022-12-27T11:05:57.485Z,95.89
2022-12-27T11:06:57.426Z,95.70
2022-12-27T11:07:57.439Z,96.03
2022-12-27T11:08:57.410Z,95.84
2022-12-27T11:09:57.415Z,96.22
2022-12-27T11:10:57.405Z,96.12
2022-12-27T11:11:57.404Z,96.12
2022-12-27T11:12:57.444Z,96.03
2022-12-27T11:13:57.409Z,96.41
2022-12-27T11:14:57.413Z,96.89
2022-12-27T11:15:59.053Z,97.55
2022-12-27T11:16:58.166Z,97.69
2022-12-27T11:17:57.416Z,98.07
2022-12-27T11:18:57.435Z,97.88
2022-12-27T11:19:57.395Z,97.97
2022-12-27T11:20:57.395Z,98.45
2022-12-27T11:21:57.404Z,98.17
2022-12-27T11:22:57.401Z,99.11
2022-12-27T11:23:57.507Z,98.55
2022-12-27T11:24:58.168Z,99.40
2022-12-27T11:25:57.431Z,98.83
2022-12-27T11:26:57.416Z,99.59
2022-12-27T11:27:57.423Z,99.50
2022-12-27T11:28:57.408Z,99.88
2022-12-27T11:29:57.418Z,99.78
2022-12-27T11:30:57.372Z,99.99
2022-12-27T11:31:57.384Z,99.99
2022-12-27T11:32:57.382Z,99.99
2022-12-27T11:33:57.414Z,99.99
2022-12-27T11:34:57.358Z,99.99
2022-12-27T11:35:57.393Z,99.99
2022-12-27T11:36:57.349Z,99.99
2022-12-27T11:37:57.351Z,99.99
2022-12-27T11:38:57.405Z,99.99
2022-12-27T11:39:57.356Z,99.99
2022-12-27T11:40:57.374Z,99.99
2022-12-27T11:41:57.348Z,99.99
2022-12-27T11:42:57.340Z,99.99
2022-12-27T11:43:57.379Z,99.99
2022-12-27T11:44:57.327Z,99.99
2022-12-27T11:45:57.367Z,99.99
2022-12-27T11:46:59.441Z,99.99
2022-12-27T11:47:57.323Z,99.99
2022-12-27T11:48:57.345Z,98.83
2022-12-27T11:49:57.427Z,98.36
2022-12-27T11:50:58.713Z,97.69
2022-12-27T11:51:58.961Z,97.88
2022-12-27T11:52:59.182Z,98.17
2022-12-27T11:54:00.700Z,97.60
2022-12-27T11:54:59.197Z,97.64
2022-12-27T11:55:58.278Z,96.60
2022-12-27T11:56:57.355Z,96.31
2022-12-27T11:58:01.670Z,95.94
2022-12-27T11:58:57.284Z,95.94
2022-12-27T11:59:57.294Z,95.75
2022-12-27T12:01:03.657Z,94.89
2022-12-27T12:01:57.436Z,94.18
2022-12-27T12:02:57.435Z,94.27
2022-12-27T12:03:57.316Z,93.89
2022-12-27T12:04:57.315Z,93.89
2022-12-27T12:05:57.275Z,94.37
2022-12-27T12:06:57.267Z,94.32
2022-12-27T12:07:57.268Z,94.70
2022-12-27T12:08:57.268Z,94.89
2022-12-27T12:09:57.283Z,95.27
2022-12-27T12:10:57.268Z,95.27
2022-12-27T12:11:57.259Z,96.03
2022-12-27T12:12:57.252Z,95.46
2022-12-27T12:13:57.246Z,95.94
2022-12-27T12:14:57.267Z,96.69
2022-12-27T12:15:57.261Z,96.60
2022-12-27T12:16:57.380Z,96.98
2022-12-27T12:17:57.240Z,96.98
2022-12-27T12:18:57.232Z,96.79
2022-12-27T12:19:57.268Z,97.17
2022-12-27T12:20:57.266Z,96.79
2022-12-27T12:21:57.282Z,96.93
2022-12-27T12:22:57.221Z,97.03
2022-12-27T12:23:57.220Z,97.17
2022-12-27T12:24:58.177Z,97.36
2022-12-27T12:25:57.269Z,96.60
2022-12-27T12:26:57.295Z,96.41
2022-12-27T12:27:57.245Z,96.22
2022-12-27T12:28:59.102Z,96.69
2022-12-27T12:29:57.214Z,96.60
2022-12-27T12:30:57.210Z,96.50
2022-12-27T12:31:57.281Z,96.50
2022-12-27T12:32:57.214Z,96.03
2022-12-27T12:33:57.204Z,96.03
2022-12-27T12:34:57.193Z,95.46
2022-12-27T12:35:57.207Z,95.84
2022-12-27T12:36:57.237Z,95.84
2022-12-27T12:37:57.180Z,96.50
2022-12-27T12:38:57.207Z,97.08
2022-12-27T12:39:57.189Z,96.31
2022-12-27T12:40:57.189Z,95.84
2022-12-27T12:41:57.187Z,96.50
2022-12-27T12:42:57.202Z,96.31
2022-12-27T12:43:57.345Z,96.12
2022-12-27T12:44:57.180Z,96.22
2022-12-27T12:45:57.208Z,95.84
2022-12-27T12:46:57.184Z,95.84
2022-12-27T12:47:57.154Z,96.22
2022-12-27T12:48:57.222Z,95.56
2022-12-27T12:49:57.175Z,96.12
2022-12-27T12:50:57.183Z,96.03
2022-12-27T12:51:57.202Z,96.69
2022-12-27T12:52:57.168Z,96.31
2022-12-27T12:53:57.146Z,97.64
2022-12-27T12:54:57.153Z,97.93
2022-12-27T12:55:57.173Z,98.17
2022-12-27T12:56:57.147Z,97.69
2022-12-27T12:57:57.131Z,96.08
2022-12-27T12:58:57.131Z,96.17